sensor_id;sensor_type;location;lat;lon;timestamp;P1;durP1;ratioP1;P2;durP2;ratioP2
50066;SDS011;35952;52.524;13.340;2022-07-04T00:00:22;5.07;;;4.67;;
50066;SDS011;35952;52.524;13.340;2022-07-04T00:02:48;4.80;;;4.50;;
50066;SDS011;35952;52.524;13.340;2022-07-04T00:05:15;5.60;;;5.10;;
50066;SDS011;35952;52.524;13.340;2022-07-04T00:07:44;4.97;;;4.67;;
50066;SDS011;35952;52.524;13.340;2022-07-04T00:10:14;5.33;;;4.87;;
50066;SDS011;35952;52.524;13.340;2022-07-04T00:12:46;4.53;;;4.13;;
50066;SDS011;35952;52.524;13.340;2022-07-04T00:15:13;5.27;;;4.77;;
50066;SDS011;35952;52.524;13.340;2022-07-04T00:17:39;5.10;;;4.67;;
50066;SDS011;35952;52.524;13.340;2022-07-04T00:20:05;5.00;;;4.60;;
50066;SDS011;35952;52.524;13.340;2022-07-04T00:22:31;5.33;;;4.93;;
50066;SDS011;35952;52.524;13.340;2022-07-04T00:24:57;5.80;;;5.20;;
50066;SDS011;35952;52.524;13.340;2022-07-04T00:27:23;4.73;;;4.43;;
50066;SDS011;35952;52.524;13.340;2022-07-04T00:29:48;5.17;;;4.77;;
50066;SDS011;35952;52.524;13.340;2022-07-04T00:32:14;5.07;;;4.70;;
50066;SDS011;35952;52.524;13.340;2022-07-04T00:34:40;5.37;;;4.87;;
50066;SDS011;35952;52.524;13.340;2022-07-04T00:37:06;5.43;;;5.03;;
50066;SDS011;35952;52.524;13.340;2022-07-04T00:39:31;5.87;;;5.30;;
50066;SDS011;35952;52.524;13.340;2022-07-04T00:41:57;5.80;;;5.30;;
50066;SDS011;35952;52.524;13.340;2022-07-04T00:44:22;6.77;;;4.70;;
50066;SDS011;35952;52.524;13.340;2022-07-04T00:46:48;7.43;;;5.17;;
50066;SDS011;35952;52.524;13.340;2022-07-04T00:49:15;5.30;;;4.90;;
50066;SDS011;35952;52.524;13.340;2022-07-04T00:51:42;5.03;;;4.63;;
50066;SDS011;35952;52.524;13.340;2022-07-04T00:54:09;6.13;;;5.57;;
50066;SDS011;35952;52.524;13.340;2022-07-04T00:56:37;5.57;;;5.10;;
50066;SDS011;35952;52.524;13.340;2022-07-04T00:59:04;5.70;;;4.70;;
50066;SDS011;35952;52.524;13.340;2022-07-04T01:01:30;5.17;;;4.67;;
50066;SDS011;35952;52.524;13.340;2022-07-04T01:03:56;5.10;;;4.70;;
50066;SDS011;35952;52.524;13.340;2022-07-04T01:06:22;5.97;;;5.40;;
50066;SDS011;35952;52.524;13.340;2022-07-04T01:08:48;8.70;;;6.10;;
50066;SDS011;35952;52.524;13.340;2022-07-04T01:11:14;7.13;;;6.43;;
50066;SDS011;35952;52.524;13.340;2022-07-04T01:13:40;8.67;;;6.63;;
50066;SDS011;35952;52.524;13.340;2022-07-04T01:16:07;5.93;;;5.43;;
50066;SDS011;35952;52.524;13.340;2022-07-04T01:18:33;7.93;;;5.27;;
50066;SDS011;35952;52.524;13.340;2022-07-04T01:20:58;7.50;;;5.20;;
50066;SDS011;35952;52.524;13.340;2022-07-04T01:23:24;6.00;;;5.60;;
50066;SDS011;35952;52.524;13.340;2022-07-04T01:25:49;5.90;;;5.50;;
50066;SDS011;35952;52.524;13.340;2022-07-04T01:28:15;5.80;;;5.43;;
50066;SDS011;35952;52.524;13.340;2022-07-04T01:30:43;5.63;;;5.10;;
50066;SDS011;35952;52.524;13.340;2022-07-04T01:33:09;6.20;;;5.20;;
50066;SDS011;35952;52.524;13.340;2022-07-04T01:35:34;5.33;;;5.00;;
50066;SDS011;35952;52.524;13.340;2022-07-04T01:38:00;5.90;;;5.47;;
50066;SDS011;35952;52.524;13.340;2022-07-04T01:40:26;6.40;;;5.87;;
50066;SDS011;35952;52.524;13.340;2022-07-04T01:42:52;6.63;;;6.17;;
50066;SDS011;35952;52.524;13.340;2022-07-04T01:45:18;5.83;;;5.43;;
50066;SDS011;35952;52.524;13.340;2022-07-04T01:47:43;6.40;;;5.90;;
50066;SDS011;35952;52.524;13.340;2022-07-04T01:50:12;6.57;;;6.10;;
50066;SDS011;35952;52.524;13.340;2022-07-04T01:52:41;7.40;;;6.17;;
50066;SDS011;35952;52.524;13.340;2022-07-04T01:55:07;7.17;;;6.57;;
50066;SDS011;35952;52.524;13.340;2022-07-04T01:57:34;6.87;;;6.33;;
50066;SDS011;35952;52.524;13.340;2022-07-04T02:00:00;8.30;;;7.60;;
50066;SDS011;35952;52.524;13.340;2022-07-04T02:02:47;7.70;;;7.07;;
50066;SDS011;35952;52.524;13.340;2022-07-04T02:05:13;8.03;;;7.43;;
50066;SDS011;35952;52.524;13.340;2022-07-04T02:07:40;8.03;;;7.40;;
50066;SDS011;35952;52.524;13.340;2022-07-04T02:10:05;7.33;;;6.83;;
50066;SDS011;35952;52.524;13.340;2022-07-04T02:12:31;9.40;;;8.60;;
50066;SDS011;35952;52.524;13.340;2022-07-04T02:15:15;9.67;;;8.93;;
50066;SDS011;35952;52.524;13.340;2022-07-04T02:17:41;9.87;;;9.17;;
50066;SDS011;35952;52.524;13.340;2022-07-04T02:20:06;9.93;;;9.27;;
50066;SDS011;35952;52.524;13.340;2022-07-04T02:22:32;9.43;;;8.60;;
50066;SDS011;35952;52.524;13.340;2022-07-04T02:24:58;9.80;;;9.00;;
50066;SDS011;35952;52.524;13.340;2022-07-04T02:27:23;9.80;;;8.93;;
50066;SDS011;35952;52.524;13.340;2022-07-04T02:29:49;9.90;;;9.07;;
50066;SDS011;35952;52.524;13.340;2022-07-04T02:32:14;8.70;;;8.10;;
50066;SDS011;35952;52.524;13.340;2022-07-04T02:34:40;11.10;;;10.20;;
50066;SDS011;35952;52.524;13.340;2022-07-04T02:37:06;12.37;;;10.17;;
50066;SDS011;35952;52.524;13.340;2022-07-04T02:39:32;10.53;;;9.77;;
50066;SDS011;35952;52.524;13.340;2022-07-04T02:41:57;10.37;;;9.33;;
50066;SDS011;35952;52.524;13.340;2022-07-04T02:44:23;11.10;;;10.20;;
50066;SDS011;35952;52.524;13.340;2022-07-04T02:46:49;10.63;;;9.83;;
50066;SDS011;35952;52.524;13.340;2022-07-04T02:49:14;17.60;;;11.30;;
50066;SDS011;35952;52.524;13.340;2022-07-04T02:51:40;11.20;;;10.27;;
50066;SDS011;35952;52.524;13.340;2022-07-04T02:54:06;11.47;;;10.57;;
50066;SDS011;35952;52.524;13.340;2022-07-04T02:56:32;11.43;;;10.63;;
50066;SDS011;35952;52.524;13.340;2022-07-04T02:58:58;11.00;;;10.00;;
50066;SDS011;35952;52.524;13.340;2022-07-04T03:01:23;11.07;;;10.17;;
50066;SDS011;35952;52.524;13.340;2022-07-04T03:03:49;11.10;;;10.20;;
50066;SDS011;35952;52.524;13.340;2022-07-04T03:06:14;11.67;;;10.67;;
50066;SDS011;35952;52.524;13.340;2022-07-04T03:08:40;10.90;;;10.10;;
50066;SDS011;35952;52.524;13.340;2022-07-04T03:11:06;11.50;;;10.70;;
50066;SDS011;35952;52.524;13.340;2022-07-04T03:13:32;12.27;;;11.07;;
50066;SDS011;35952;52.524;13.340;2022-07-04T03:15:58;11.50;;;10.60;;
50066;SDS011;35952;52.524;13.340;2022-07-04T03:18:23;12.03;;;11.10;;
50066;SDS011;35952;52.524;13.340;2022-07-04T03:20:50;11.97;;;10.97;;
50066;SDS011;35952;52.524;13.340;2022-07-04T03:23:16;12.30;;;11.03;;
50066;SDS011;35952;52.524;13.340;2022-07-04T03:25:41;12.07;;;11.17;;
50066;SDS011;35952;52.524;13.340;2022-07-04T03:28:07;11.73;;;10.93;;
50066;SDS011;35952;52.524;13.340;2022-07-04T03:30:33;13.57;;;12.50;;
50066;SDS011;35952;52.524;13.340;2022-07-04T03:32:59;11.77;;;10.80;;
50066;SDS011;35952;52.524;13.340;2022-07-04T03:35:25;23.57;;;21.20;;
50066;SDS011;35952;52.524;13.340;2022-07-04T03:37:51;15.00;;;11.80;;
50066;SDS011;35952;52.524;13.340;2022-07-04T03:40:17;31.73;;;28.37;;
50066;SDS011;35952;52.524;13.340;2022-07-04T03:42:43;12.90;;;11.87;;
50066;SDS011;35952;52.524;13.340;2022-07-04T03:45:09;12.23;;;11.23;;
50066;SDS011;35952;52.524;13.340;2022-07-04T03:47:35;12.10;;;11.20;;
50066;SDS011;35952;52.524;13.340;2022-07-04T03:50:01;13.03;;;12.03;;
50066;SDS011;35952;52.524;13.340;2022-07-04T03:52:27;12.37;;;11.27;;
50066;SDS011;35952;52.524;13.340;2022-07-04T03:54:53;12.93;;;11.83;;
50066;SDS011;35952;52.524;13.340;2022-07-04T03:57:18;13.37;;;12.27;;
50066;SDS011;35952;52.524;13.340;2022-07-04T03:59:44;12.47;;;11.37;;
50066;SDS011;35952;52.524;13.340;2022-07-04T04:02:09;12.60;;;11.70;;
50066;SDS011;35952;52.524;13.340;2022-07-04T04:04:35;13.40;;;12.20;;
50066;SDS011;35952;52.524;13.340;2022-07-04T04:07:19;14.03;;;12.73;;
50066;SDS011;35952;52.524;13.340;2022-07-04T04:09:45;13.30;;;12.00;;
50066;SDS011;35952;52.524;13.340;2022-07-04T04:12:10;12.63;;;11.70;;
50066;SDS011;35952;52.524;13.340;2022-07-04T04:14:36;12.80;;;11.70;;
50066;SDS011;35952;52.524;13.340;2022-07-04T04:17:02;13.93;;;12.93;;
50066;SDS011;35952;52.524;13.340;2022-07-04T04:19:27;13.10;;;12.10;;
50066;SDS011;35952;52.524;13.340;2022-07-04T04:21:53;13.50;;;12.30;;
50066;SDS011;35952;52.524;13.340;2022-07-04T04:24:18;11.70;;;10.80;;
50066;SDS011;35952;52.524;13.340;2022-07-04T04:26:44;13.50;;;12.30;;
50066;SDS011;35952;52.524;13.340;2022-07-04T04:29:10;16.57;;;15.03;;
50066;SDS011;35952;52.524;13.340;2022-07-04T04:31:35;14.93;;;13.60;;
50066;SDS011;35952;52.524;13.340;2022-07-04T04:34:01;13.90;;;12.80;;
50066;SDS011;35952;52.524;13.340;2022-07-04T04:36:26;13.67;;;12.50;;
50066;SDS011;35952;52.524;13.340;2022-07-04T04:38:52;13.83;;;12.77;;
50066;SDS011;35952;52.524;13.340;2022-07-04T04:41:18;12.93;;;11.93;;
50066;SDS011;35952;52.524;13.340;2022-07-04T04:43:43;12.20;;;11.07;;
50066;SDS011;35952;52.524;13.340;2022-07-04T04:46:09;12.60;;;11.40;;
50066;SDS011;35952;52.524;13.340;2022-07-04T04:48:35;13.37;;;12.00;;
50066;SDS011;35952;52.524;13.340;2022-07-04T04:51:00;11.37;;;10.37;;
50066;SDS011;35952;52.524;13.340;2022-07-04T04:53:26;12.33;;;11.53;;
50066;SDS011;35952;52.524;13.340;2022-07-04T04:55:52;13.40;;;12.07;;
50066;SDS011;35952;52.524;13.340;2022-07-04T04:58:19;10.00;;;9.00;;
50066;SDS011;35952;52.524;13.340;2022-07-04T05:00:45;11.77;;;10.67;;
50066;SDS011;35952;52.524;13.340;2022-07-04T05:03:11;10.83;;;10.03;;
50066;SDS011;35952;52.524;13.340;2022-07-04T05:05:36;10.83;;;9.53;;
50066;SDS011;35952;52.524;13.340;2022-07-04T05:08:02;10.10;;;9.43;;
50066;SDS011;35952;52.524;13.340;2022-07-04T05:10:28;10.30;;;9.40;;
50066;SDS011;35952;52.524;13.340;2022-07-04T05:12:53;9.80;;;9.00;;
50066;SDS011;35952;52.524;13.340;2022-07-04T05:15:20;9.33;;;8.50;;
50066;SDS011;35952;52.524;13.340;2022-07-04T05:17:45;9.57;;;8.57;;
50066;SDS011;35952;52.524;13.340;2022-07-04T05:20:11;8.97;;;8.17;;
50066;SDS011;35952;52.524;13.340;2022-07-04T05:22:36;8.70;;;8.00;;
50066;SDS011;35952;52.524;13.340;2022-07-04T05:25:02;8.60;;;8.00;;
50066;SDS011;35952;52.524;13.340;2022-07-04T05:27:28;8.77;;;7.00;;
50066;SDS011;35952;52.524;13.340;2022-07-04T05:29:55;7.03;;;6.37;;
50066;SDS011;35952;52.524;13.340;2022-07-04T05:32:21;7.97;;;6.97;;
50066;SDS011;35952;52.524;13.340;2022-07-04T05:34:47;7.53;;;6.73;;
50066;SDS011;35952;52.524;13.340;2022-07-04T05:37:13;7.10;;;6.60;;
50066;SDS011;35952;52.524;13.340;2022-07-04T05:39:38;7.20;;;6.70;;
50066;SDS011;35952;52.524;13.340;2022-07-04T05:42:04;5.70;;;5.30;;
50066;SDS011;35952;52.524;13.340;2022-07-04T05:44:29;6.33;;;5.93;;
50066;SDS011;35952;52.524;13.340;2022-07-04T05:46:55;6.43;;;6.03;;
50066;SDS011;35952;52.524;13.340;2022-07-04T05:49:20;5.80;;;5.37;;
50066;SDS011;35952;52.524;13.340;2022-07-04T05:51:46;5.87;;;5.27;;
50066;SDS011;35952;52.524;13.340;2022-07-04T05:54:12;5.50;;;5.10;;
50066;SDS011;35952;52.524;13.340;2022-07-04T05:56:37;6.03;;;5.63;;
50066;SDS011;35952;52.524;13.340;2022-07-04T05:59:04;4.93;;;4.63;;
50066;SDS011;35952;52.524;13.340;2022-07-04T06:01:30;7.33;;;5.33;;
50066;SDS011;35952;52.524;13.340;2022-07-04T06:03:55;4.70;;;4.40;;
50066;SDS011;35952;52.524;13.340;2022-07-04T06:06:21;5.07;;;4.67;;
50066;SDS011;35952;52.524;13.340;2022-07-04T06:08:46;5.10;;;4.80;;
50066;SDS011;35952;52.524;13.340;2022-07-04T06:11:12;4.70;;;4.37;;
50066;SDS011;35952;52.524;13.340;2022-07-04T06:13:39;4.00;;;3.70;;
50066;SDS011;35952;52.524;13.340;2022-07-04T06:16:05;4.90;;;4.23;;
50066;SDS011;35952;52.524;13.340;2022-07-04T06:18:30;4.20;;;3.67;;
50066;SDS011;35952;52.524;13.340;2022-07-04T06:20:56;4.53;;;3.67;;
50066;SDS011;35952;52.524;13.340;2022-07-04T06:23:21;3.50;;;3.23;;
50066;SDS011;35952;52.524;13.340;2022-07-04T06:25:47;3.20;;;2.80;;
50066;SDS011;35952;52.524;13.340;2022-07-04T06:28:13;2.87;;;2.67;;
50066;SDS011;35952;52.524;13.340;2022-07-04T06:30:38;3.10;;;2.90;;
50066;SDS011;35952;52.524;13.340;2022-07-04T06:33:05;3.23;;;3.00;;
50066;SDS011;35952;52.524;13.340;2022-07-04T06:35:31;3.30;;;2.77;;
50066;SDS011;35952;52.524;13.340;2022-07-04T06:38:20;2.47;;;2.27;;
50066;SDS011;35952;52.524;13.340;2022-07-04T06:40:49;2.70;;;2.50;;
50066;SDS011;35952;52.524;13.340;2022-07-04T06:43:15;4.67;;;2.13;;
50066;SDS011;35952;52.524;13.340;2022-07-04T06:45:41;2.40;;;2.20;;
50066;SDS011;35952;52.524;13.340;2022-07-04T06:48:07;4.63;;;2.80;;
50066;SDS011;35952;52.524;13.340;2022-07-04T06:50:33;2.70;;;2.50;;
50066;SDS011;35952;52.524;13.340;2022-07-04T06:53:03;2.23;;;2.07;;
50066;SDS011;35952;52.524;13.340;2022-07-04T06:55:32;2.00;;;1.90;;
50066;SDS011;35952;52.524;13.340;2022-07-04T06:58:00;3.03;;;2.27;;
50066;SDS011;35952;52.524;13.340;2022-07-04T07:00:26;2.73;;;2.37;;
50066;SDS011;35952;52.524;13.340;2022-07-04T07:02:51;2.50;;;2.00;;
50066;SDS011;35952;52.524;13.340;2022-07-04T07:05:17;4.67;;;2.70;;
50066;SDS011;35952;52.524;13.340;2022-07-04T07:07:43;2.63;;;2.23;;
50066;SDS011;35952;52.524;13.340;2022-07-04T07:10:08;4.77;;;2.50;;
50066;SDS011;35952;52.524;13.340;2022-07-04T07:12:34;2.53;;;2.30;;
50066;SDS011;35952;52.524;13.340;2022-07-04T07:15:00;2.20;;;2.10;;
50066;SDS011;35952;52.524;13.340;2022-07-04T07:17:27;2.50;;;2.13;;
50066;SDS011;35952;52.524;13.340;2022-07-04T07:19:52;2.10;;;1.90;;
50066;SDS011;35952;52.524;13.340;2022-07-04T07:22:19;3.03;;;2.17;;
50066;SDS011;35952;52.524;13.340;2022-07-04T07:24:44;3.20;;;2.43;;
50066;SDS011;35952;52.524;13.340;2022-07-04T07:27:10;3.20;;;2.20;;
50066;SDS011;35952;52.524;13.340;2022-07-04T07:29:36;2.57;;;2.23;;
50066;SDS011;35952;52.524;13.340;2022-07-04T07:32:03;6.07;;;5.30;;
50066;SDS011;35952;52.524;13.340;2022-07-04T07:34:29;2.93;;;2.73;;
50066;SDS011;35952;52.524;13.340;2022-07-04T07:36:55;2.80;;;2.60;;
50066;SDS011;35952;52.524;13.340;2022-07-04T07:39:21;2.30;;;2.10;;
50066;SDS011;35952;52.524;13.340;2022-07-04T07:41:47;3.10;;;2.83;;
50066;SDS011;35952;52.524;13.340;2022-07-04T07:44:12;3.10;;;2.80;;
50066;SDS011;35952;52.524;13.340;2022-07-04T07:46:38;2.77;;;2.57;;
50066;SDS011;35952;52.524;13.340;2022-07-04T07:49:04;3.03;;;2.43;;
50066;SDS011;35952;52.524;13.340;2022-07-04T07:51:29;5.70;;;2.17;;
50066;SDS011;35952;52.524;13.340;2022-07-04T07:53:55;2.20;;;2.00;;
50066;SDS011;35952;52.524;13.340;2022-07-04T07:56:21;5.17;;;2.30;;
50066;SDS011;35952;52.524;13.340;2022-07-04T07:58:47;1.70;;;1.57;;
50066;SDS011;35952;52.524;13.340;2022-07-04T08:01:13;2.17;;;2.00;;
50066;SDS011;35952;52.524;13.340;2022-07-04T08:03:38;4.10;;;2.83;;
50066;SDS011;35952;52.524;13.340;2022-07-04T08:06:22;2.60;;;2.30;;
50066;SDS011;35952;52.524;13.340;2022-07-04T08:08:48;2.07;;;1.97;;
50066;SDS011;35952;52.524;13.340;2022-07-04T08:11:14;4.73;;;2.53;;
50066;SDS011;35952;52.524;13.340;2022-07-04T08:13:39;4.00;;;2.23;;
50066;SDS011;35952;52.524;13.340;2022-07-04T08:16:06;2.63;;;2.43;;
50066;SDS011;35952;52.524;13.340;2022-07-04T08:18:32;2.70;;;1.83;;
50066;SDS011;35952;52.524;13.340;2022-07-04T08:20:58;5.47;;;4.27;;
50066;SDS011;35952;52.524;13.340;2022-07-04T08:23:24;2.70;;;2.10;;
50066;SDS011;35952;52.524;13.340;2022-07-04T08:25:51;4.90;;;2.00;;
50066;SDS011;35952;52.524;13.340;2022-07-04T08:28:16;5.10;;;2.00;;
50066;SDS011;35952;52.524;13.340;2022-07-04T08:30:42;4.60;;;2.40;;
50066;SDS011;35952;52.524;13.340;2022-07-04T08:33:08;4.80;;;1.90;;
50066;SDS011;35952;52.524;13.340;2022-07-04T08:35:33;2.20;;;2.00;;
50066;SDS011;35952;52.524;13.340;2022-07-04T08:37:59;2.17;;;1.97;;
50066;SDS011;35952;52.524;13.340;2022-07-04T08:40:25;9.90;;;2.23;;
50066;SDS011;35952;52.524;13.340;2022-07-04T08:42:52;3.80;;;2.20;;
50066;SDS011;35952;52.524;13.340;2022-07-04T08:45:36;2.10;;;1.90;;
50066;SDS011;35952;52.524;13.340;2022-07-04T08:48:06;4.37;;;2.00;;
50066;SDS011;35952;52.524;13.340;2022-07-04T08:53:00;2.37;;;2.00;;
50066;SDS011;35952;52.524;13.340;2022-07-04T08:55:31;2.63;;;2.20;;
50066;SDS011;35952;52.524;13.340;2022-07-04T08:58:16;2.33;;;2.03;;
50066;SDS011;35952;52.524;13.340;2022-07-04T09:00:51;2.00;;;1.80;;
50066;SDS011;35952;52.524;13.340;2022-07-04T09:03:44;2.43;;;1.87;;
50066;SDS011;35952;52.524;13.340;2022-07-04T09:06:11;2.37;;;2.17;;
50066;SDS011;35952;52.524;13.340;2022-07-04T09:08:37;5.17;;;2.67;;
50066;SDS011;35952;52.524;13.340;2022-07-04T09:11:04;2.57;;;2.13;;
50066;SDS011;35952;52.524;13.340;2022-07-04T09:13:30;2.80;;;2.23;;
50066;SDS011;35952;52.524;13.340;2022-07-04T09:16:00;6.07;;;1.87;;
50066;SDS011;35952;52.524;13.340;2022-07-04T09:18:27;4.50;;;2.50;;
50066;SDS011;35952;52.524;13.340;2022-07-04T09:20:58;2.80;;;1.87;;
50066;SDS011;35952;52.524;13.340;2022-07-04T09:23:27;2.80;;;2.60;;
50066;SDS011;35952;52.524;13.340;2022-07-04T09:26:13;4.13;;;2.50;;
50066;SDS011;35952;52.524;13.340;2022-07-04T09:28:45;3.13;;;1.87;;
50066;SDS011;35952;52.524;13.340;2022-07-04T09:31:24;2.50;;;2.27;;
50066;SDS011;35952;52.524;13.340;2022-07-04T09:33:56;1.83;;;1.73;;
50066;SDS011;35952;52.524;13.340;2022-07-04T09:36:26;3.20;;;2.27;;
50066;SDS011;35952;52.524;13.340;2022-07-04T09:41:31;3.40;;;2.00;;
50066;SDS011;35952;52.524;13.340;2022-07-04T09:44:13;3.43;;;2.27;;
50066;SDS011;35952;52.524;13.340;2022-07-04T09:46:39;2.73;;;2.03;;
50066;SDS011;35952;52.524;13.340;2022-07-04T09:49:05;4.13;;;2.10;;
50066;SDS011;35952;52.524;13.340;2022-07-04T09:54:11;2.37;;;2.17;;
50066;SDS011;35952;52.524;13.340;2022-07-04T09:56:51;4.30;;;2.20;;
50066;SDS011;35952;52.524;13.340;2022-07-04T09:59:19;5.70;;;3.80;;
50066;SDS011;35952;52.524;13.340;2022-07-04T10:01:45;4.53;;;2.33;;
50066;SDS011;35952;52.524;13.340;2022-07-04T10:04:14;2.80;;;1.93;;
50066;SDS011;35952;52.524;13.340;2022-07-04T10:06:40;3.43;;;2.00;;
50066;SDS011;35952;52.524;13.340;2022-07-04T10:09:08;8.40;;;1.83;;
50066;SDS011;35952;52.524;13.340;2022-07-04T10:11:38;2.33;;;1.90;;
50066;SDS011;35952;52.524;13.340;2022-07-04T10:14:05;5.60;;;1.70;;
50066;SDS011;35952;52.524;13.340;2022-07-04T10:16:32;2.03;;;1.93;;
50066;SDS011;35952;52.524;13.340;2022-07-04T10:18:58;4.13;;;3.10;;
50066;SDS011;35952;52.524;13.340;2022-07-04T10:21:23;4.43;;;1.73;;
50066;SDS011;35952;52.524;13.340;2022-07-04T10:23:49;2.60;;;1.93;;
50066;SDS011;35952;52.524;13.340;2022-07-04T10:26:23;1.60;;;1.50;;
50066;SDS011;35952;52.524;13.340;2022-07-04T10:28:49;1.90;;;1.80;;
50066;SDS011;35952;52.524;13.340;2022-07-04T10:31:17;3.00;;;2.10;;
50066;SDS011;35952;52.524;13.340;2022-07-04T10:33:45;2.57;;;2.37;;
50066;SDS011;35952;52.524;13.340;2022-07-04T10:36:18;3.80;;;3.50;;
50066;SDS011;35952;52.524;13.340;2022-07-04T10:41:18;2.80;;;1.80;;
50066;SDS011;35952;52.524;13.340;2022-07-04T10:46:33;3.70;;;1.87;;
50066;SDS011;35952;52.524;13.340;2022-07-04T10:51:57;3.40;;;2.10;;
50066;SDS011;35952;52.524;13.340;2022-07-04T10:54:34;4.40;;;2.10;;
50066;SDS011;35952;52.524;13.340;2022-07-04T11:05:03;2.93;;;2.40;;
50066;SDS011;35952;52.524;13.340;2022-07-04T11:18:02;2.80;;;1.80;;
50066;SDS011;35952;52.524;13.340;2022-07-04T11:20:34;2.07;;;1.77;;
50066;SDS011;35952;52.524;13.340;2022-07-04T11:23:07;2.17;;;1.90;;
50066;SDS011;35952;52.524;13.340;2022-07-04T11:25:34;4.23;;;2.07;;
50066;SDS011;35952;52.524;13.340;2022-07-04T11:30:51;3.20;;;1.97;;
50066;SDS011;35952;52.524;13.340;2022-07-04T11:33:19;2.27;;;1.90;;
50066;SDS011;35952;52.524;13.340;2022-07-04T11:36:05;5.73;;;1.80;;
50066;SDS011;35952;52.524;13.340;2022-07-04T11:38:43;3.70;;;1.87;;
50066;SDS011;35952;52.524;13.340;2022-07-04T11:41:18;3.17;;;2.10;;
50066;SDS011;35952;52.524;13.340;2022-07-04T11:44:04;2.47;;;2.23;;
50066;SDS011;35952;52.524;13.340;2022-07-04T11:46:50;2.70;;;2.03;;
50066;SDS011;35952;52.524;13.340;2022-07-04T11:49:16;3.10;;;1.90;;
50066;SDS011;35952;52.524;13.340;2022-07-04T11:51:42;2.07;;;1.87;;
50066;SDS011;35952;52.524;13.340;2022-07-04T11:54:10;2.23;;;2.13;;
50066;SDS011;35952;52.524;13.340;2022-07-04T11:56:36;2.03;;;1.80;;
50066;SDS011;35952;52.524;13.340;2022-07-04T11:59:09;2.50;;;1.70;;
50066;SDS011;35952;52.524;13.340;2022-07-04T12:01:36;3.17;;;1.90;;
50066;SDS011;35952;52.524;13.340;2022-07-04T12:04:18;2.83;;;2.10;;
50066;SDS011;35952;52.524;13.340;2022-07-04T12:06:45;2.30;;;1.90;;
50066;SDS011;35952;52.524;13.340;2022-07-04T12:09:12;3.00;;;2.47;;
50066;SDS011;35952;52.524;13.340;2022-07-04T12:11:53;5.00;;;3.00;;
50066;SDS011;35952;52.524;13.340;2022-07-04T12:14:21;2.97;;;1.83;;
50066;SDS011;35952;52.524;13.340;2022-07-04T12:16:47;3.77;;;1.80;;
50066;SDS011;35952;52.524;13.340;2022-07-04T12:19:13;3.07;;;1.83;;
50066;SDS011;35952;52.524;13.340;2022-07-04T12:21:39;3.70;;;1.80;;
50066;SDS011;35952;52.524;13.340;2022-07-04T12:24:06;2.00;;;1.67;;
50066;SDS011;35952;52.524;13.340;2022-07-04T12:26:33;3.13;;;1.90;;
50066;SDS011;35952;52.524;13.340;2022-07-04T12:29:00;2.10;;;1.90;;
50066;SDS011;35952;52.524;13.340;2022-07-04T12:31:41;2.10;;;1.90;;
50066;SDS011;35952;52.524;13.340;2022-07-04T12:34:14;2.03;;;1.90;;
50066;SDS011;35952;52.524;13.340;2022-07-04T12:36:50;2.43;;;1.77;;
50066;SDS011;35952;52.524;13.340;2022-07-04T12:39:30;3.73;;;1.40;;
50066;SDS011;35952;52.524;13.340;2022-07-04T12:42:03;4.37;;;1.97;;
50066;SDS011;35952;52.524;13.340;2022-07-04T12:44:35;3.53;;;2.17;;
50066;SDS011;35952;52.524;13.340;2022-07-04T12:47:05;3.23;;;2.40;;
50066;SDS011;35952;52.524;13.340;2022-07-04T12:49:31;3.27;;;1.50;;
50066;SDS011;35952;52.524;13.340;2022-07-04T12:52:11;1.80;;;1.70;;
50066;SDS011;35952;52.524;13.340;2022-07-04T12:54:38;2.90;;;1.60;;
50066;SDS011;35952;52.524;13.340;2022-07-04T12:57:12;1.60;;;1.40;;
50066;SDS011;35952;52.524;13.340;2022-07-04T12:59:39;1.93;;;1.80;;
50066;SDS011;35952;52.524;13.340;2022-07-04T13:02:07;1.47;;;1.33;;
50066;SDS011;35952;52.524;13.340;2022-07-04T13:04:34;3.10;;;2.10;;
50066;SDS011;35952;52.524;13.340;2022-07-04T13:07:11;1.50;;;1.30;;
50066;SDS011;35952;52.524;13.340;2022-07-04T13:09:44;2.80;;;1.90;;
50066;SDS011;35952;52.524;13.340;2022-07-04T13:12:11;2.17;;;2.00;;
50066;SDS011;35952;52.524;13.340;2022-07-04T13:14:50;1.60;;;1.50;;
50066;SDS011;35952;52.524;13.340;2022-07-04T13:17:16;2.57;;;1.70;;
50066;SDS011;35952;52.524;13.340;2022-07-04T13:19:42;1.60;;;1.50;;
50066;SDS011;35952;52.524;13.340;2022-07-04T13:22:08;1.87;;;1.50;;
50066;SDS011;35952;52.524;13.340;2022-07-04T13:24:33;4.90;;;1.63;;
50066;SDS011;35952;52.524;13.340;2022-07-04T13:26:59;3.27;;;1.63;;
50066;SDS011;35952;52.524;13.340;2022-07-04T13:29:24;1.97;;;1.70;;
50066;SDS011;35952;52.524;13.340;2022-07-04T13:31:50;6.27;;;2.23;;
50066;SDS011;35952;52.524;13.340;2022-07-04T13:34:15;2.23;;;1.97;;
50066;SDS011;35952;52.524;13.340;2022-07-04T13:36:42;3.67;;;1.50;;
50066;SDS011;35952;52.524;13.340;2022-07-04T13:39:07;2.03;;;1.30;;
50066;SDS011;35952;52.524;13.340;2022-07-04T13:41:33;1.50;;;1.40;;
50066;SDS011;35952;52.524;13.340;2022-07-04T13:44:02;3.13;;;1.33;;
50066;SDS011;35952;52.524;13.340;2022-07-04T13:46:28;1.77;;;1.20;;
50066;SDS011;35952;52.524;13.340;2022-07-04T13:48:54;5.10;;;1.50;;
50066;SDS011;35952;52.524;13.340;2022-07-04T13:51:20;3.07;;;2.10;;
50066;SDS011;35952;52.524;13.340;2022-07-04T13:53:45;2.03;;;1.40;;
50066;SDS011;35952;52.524;13.340;2022-07-04T13:56:11;2.30;;;1.70;;
50066;SDS011;35952;52.524;13.340;2022-07-04T13:58:41;3.60;;;1.40;;
50066;SDS011;35952;52.524;13.340;2022-07-04T14:01:06;3.50;;;1.30;;
50066;SDS011;35952;52.524;13.340;2022-07-04T14:03:32;2.60;;;1.23;;
50066;SDS011;35952;52.524;13.340;2022-07-04T14:05:57;1.43;;;1.30;;
50066;SDS011;35952;52.524;13.340;2022-07-04T14:08:23;2.67;;;1.20;;
50066;SDS011;35952;52.524;13.340;2022-07-04T14:10:48;5.40;;;1.50;;
50066;SDS011;35952;52.524;13.340;2022-07-04T14:13:14;2.30;;;1.20;;
50066;SDS011;35952;52.524;13.340;2022-07-04T14:15:40;3.00;;;1.20;;
50066;SDS011;35952;52.524;13.340;2022-07-04T14:18:06;2.70;;;1.50;;
50066;SDS011;35952;52.524;13.340;2022-07-04T14:20:36;1.70;;;1.60;;
50066;SDS011;35952;52.524;13.340;2022-07-04T14:23:01;2.00;;;1.40;;
50066;SDS011;35952;52.524;13.340;2022-07-04T14:25:27;1.83;;;1.40;;
50066;SDS011;35952;52.524;13.340;2022-07-04T14:27:53;3.47;;;2.27;;
50066;SDS011;35952;52.524;13.340;2022-07-04T14:30:18;3.73;;;1.90;;
50066;SDS011;35952;52.524;13.340;2022-07-04T14:32:43;2.40;;;1.50;;
50066;SDS011;35952;52.524;13.340;2022-07-04T14:35:09;1.93;;;1.47;;
50066;SDS011;35952;52.524;13.340;2022-07-04T14:37:34;1.83;;;1.73;;
50066;SDS011;35952;52.524;13.340;2022-07-04T14:40:00;2.10;;;1.73;;
50066;SDS011;35952;52.524;13.340;2022-07-04T14:42:25;2.47;;;1.63;;
50066;SDS011;35952;52.524;13.340;2022-07-04T14:44:51;2.00;;;1.83;;
50066;SDS011;35952;52.524;13.340;2022-07-04T14:47:16;3.87;;;1.37;;
50066;SDS011;35952;52.524;13.340;2022-07-04T14:49:42;2.43;;;1.70;;
50066;SDS011;35952;52.524;13.340;2022-07-04T14:52:09;1.53;;;1.43;;
50066;SDS011;35952;52.524;13.340;2022-07-04T14:54:35;1.93;;;1.70;;
50066;SDS011;35952;52.524;13.340;2022-07-04T14:57:00;2.13;;;1.93;;
50066;SDS011;35952;52.524;13.340;2022-07-04T14:59:26;6.30;;;2.33;;
50066;SDS011;35952;52.524;13.340;2022-07-04T15:01:51;1.70;;;1.60;;
50066;SDS011;35952;52.524;13.340;2022-07-04T15:04:18;1.97;;;1.83;;
50066;SDS011;35952;52.524;13.340;2022-07-04T15:06:44;2.50;;;2.00;;
50066;SDS011;35952;52.524;13.340;2022-07-04T15:09:09;1.67;;;1.57;;